sensor_id;sensor_type;location;lat;lon;timestamp;P1;durP1;ratioP1;P2;durP2;ratioP2
50851;SDS011;43953;45.508;-122.806;2023-09-08T00:00:24;1.80;;;0.60;;
50851;SDS011;43953;45.508;-122.806;2023-09-08T00:00:56;1.02;;;0.50;;
50851;SDS011;43953;45.508;-122.806;2023-09-08T00:01:28;0.82;;;0.60;;
50851;SDS011;43953;45.508;-122.806;2023-09-08T00:02:00;1.15;;;0.70;;
50851;SDS011;43953;45.508;-122.806;2023-09-08T00:02:31;0.90;;;0.70;;
50851;SDS011;43953;45.508;-122.806;2023-09-08T00:03:03;0.95;;;0.60;;
50851;SDS011;43953;45.508;-122.806;2023-09-08T00:03:35;1.27;;;0.60;;
50851;SDS011;43953;45.508;-122.806;2023-09-08T00:04:06;0.85;;;0.60;;
50851;SDS011;43953;45.508;-122.806;2023-09-08T00:04:38;1.20;;;0.60;;
50851;SDS011;43953;45.508;-122.806;2023-09-08T00:05:10;0.60;;;0.60;;
50851;SDS011;43953;45.508;-122.806;2023-09-08T00:05:42;0.70;;;0.50;;
50851;SDS011;43953;45.508;-122.806;2023-09-08T00:06:13;1.40;;;0.57;;
50851;SDS011;43953;45.508;-122.806;2023-09-08T00:06:45;0.75;;;0.68;;
50851;SDS011;43953;45.508;-122.806;2023-09-08T00:07:17;1.25;;;0.57;;
50851;SDS011;43953;45.508;-122.806;2023-09-08T00:07:48;0.82;;;0.70;;
50851;SDS011;43953;45.508;-122.806;2023-09-08T00:08:20;1.20;;;0.68;;
50851;SDS011;43953;45.508;-122.806;2023-09-08T00:08:54;1.95;;;0.60;;
50851;SDS011;43953;45.508;-122.806;2023-09-08T00:09:26;0.70;;;0.70;;
50851;SDS011;43953;45.508;-122.806;2023-09-08T00:09:58;2.28;;;0.82;;
50851;SDS011;43953;45.508;-122.806;2023-09-08T00:10:30;2.50;;;0.70;;
50851;SDS011;43953;45.508;-122.806;2023-09-08T00:11:01;1.23;;;0.82;;
50851;SDS011;43953;45.508;-122.806;2023-09-08T00:11:33;0.70;;;0.70;;
50851;SDS011;43953;45.508;-122.806;2023-09-08T00:12:05;2.08;;;0.90;;
50851;SDS011;43953;45.508;-122.806;2023-09-08T00:12:37;1.08;;;0.80;;
50851;SDS011;43953;45.508;-122.806;2023-09-08T00:13:10;3.00;;;1.30;;
50851;SDS011;43953;45.508;-122.806;2023-09-08T00:13:44;1.02;;;0.80;;
50851;SDS011;43953;45.508;-122.806;2023-09-08T00:14:15;1.40;;;0.75;;
50851;SDS011;43953;45.508;-122.806;2023-09-08T00:14:48;3.42;;;0.90;;
50851;SDS011;43953;45.508;-122.806;2023-09-08T00:15:20;1.52;;;0.77;;
50851;SDS011;43953;45.508;-122.806;2023-09-08T00:15:52;1.80;;;0.85;;
50851;SDS011;43953;45.508;-122.806;2023-09-08T00:16:23;1.27;;;1.13;;
50851;SDS011;43953;45.508;-122.806;2023-09-08T00:16:55;1.40;;;0.73;;
50851;SDS011;43953;45.508;-122.806;2023-09-08T00:17:27;2.05;;;0.85;;
50851;SDS011;43953;45.508;-122.806;2023-09-08T00:17:58;2.58;;;0.93;;
50851;SDS011;43953;45.508;-122.806;2023-09-08T00:18:30;2.78;;;1.05;;
50851;SDS011;43953;45.508;-122.806;2023-09-08T00:19:02;4.75;;;0.90;;
50851;SDS011;43953;45.508;-122.806;2023-09-08T00:19:33;3.65;;;1.55;;
50851;SDS011;43953;45.508;-122.806;2023-09-08T00:20:05;2.20;;;0.82;;
50851;SDS011;43953;45.508;-122.806;2023-09-08T00:20:40;1.33;;;0.70;;
50851;SDS011;43953;45.508;-122.806;2023-09-08T00:21:12;0.90;;;0.90;;
50851;SDS011;43953;45.508;-122.806;2023-09-08T00:21:44;1.98;;;0.82;;
50851;SDS011;43953;45.508;-122.806;2023-09-08T00:22:16;2.40;;;0.95;;
50851;SDS011;43953;45.508;-122.806;2023-09-08T00:22:47;1.50;;;0.80;;
50851;SDS011;43953;45.508;-122.806;2023-09-08T00:23:19;0.85;;;0.73;;
50851;SDS011;43953;45.508;-122.806;2023-09-08T00:23:51;3.08;;;0.90;;
50851;SDS011;43953;45.508;-122.806;2023-09-08T00:24:23;1.05;;;0.95;;
50851;SDS011;43953;45.508;-122.806;2023-09-08T00:24:55;3.47;;;0.77;;
50851;SDS011;43953;45.508;-122.806;2023-09-08T00:25:27;1.70;;;1.00;;
50851;SDS011;43953;45.508;-122.806;2023-09-08T00:25:59;1.52;;;0.80;;
50851;SDS011;43953;45.508;-122.806;2023-09-08T00:26:30;4.75;;;1.35;;
50851;SDS011;43953;45.508;-122.806;2023-09-08T00:27:03;2.50;;;0.80;;
50851;SDS011;43953;45.508;-122.806;2023-09-08T00:27:35;0.80;;;0.80;;
50851;SDS011;43953;45.508;-122.806;2023-09-08T00:28:06;2.13;;;1.00;;
50851;SDS011;43953;45.508;-122.806;2023-09-08T00:28:38;3.33;;;0.75;;
50851;SDS011;43953;45.508;-122.806;2023-09-08T00:29:10;0.80;;;0.80;;
50851;SDS011;43953;45.508;-122.806;2023-09-08T00:29:42;1.27;;;0.75;;
50851;SDS011;43953;45.508;-122.806;2023-09-08T00:30:13;1.98;;;0.90;;
50851;SDS011;43953;45.508;-122.806;2023-09-08T00:30:45;1.85;;;0.73;;
50851;SDS011;43953;45.508;-122.806;2023-09-08T00:31:17;1.25;;;1.15;;
50851;SDS011;43953;45.508;-122.806;2023-09-08T00:31:48;2.03;;;0.90;;
50851;SDS011;43953;45.508;-122.806;2023-09-08T00:32:20;1.13;;;0.82;;
50851;SDS011;43953;45.508;-122.806;2023-09-08T00:32:52;2.88;;;0.70;;
50851;SDS011;43953;45.508;-122.806;2023-09-08T00:33:23;1.05;;;0.85;;
50851;SDS011;43953;45.508;-122.806;2023-09-08T00:33:55;4.43;;;1.00;;
50851;SDS011;43953;45.508;-122.806;2023-09-08T00:34:27;1.85;;;1.08;;
50851;SDS011;43953;45.508;-122.806;2023-09-08T00:34:58;2.42;;;0.68;;
50851;SDS011;43953;45.508;-122.806;2023-09-08T00:35:30;2.30;;;0.90;;
50851;SDS011;43953;45.508;-122.806;2023-09-08T00:36:02;1.75;;;0.70;;
50851;SDS011;43953;45.508;-122.806;2023-09-08T00:36:34;2.17;;;0.90;;
50851;SDS011;43953;45.508;-122.806;2023-09-08T00:37:07;2.80;;;0.88;;
50851;SDS011;43953;45.508;-122.806;2023-09-08T00:37:40;2.78;;;0.82;;
50851;SDS011;43953;45.508;-122.806;2023-09-08T00:38:12;3.75;;;0.93;;
50851;SDS011;43953;45.508;-122.806;2023-09-08T00:38:43;2.45;;;1.08;;
50851;SDS011;43953;45.508;-122.806;2023-09-08T00:39:15;3.20;;;0.90;;
50851;SDS011;43953;45.508;-122.806;2023-09-08T00:39:47;1.48;;;0.88;;
50851;SDS011;43953;45.508;-122.806;2023-09-08T00:40:18;5.70;;;0.90;;
50851;SDS011;43953;45.508;-122.806;2023-09-08T00:40:50;2.67;;;0.65;;
50851;SDS011;43953;45.508;-122.806;2023-09-08T00:41:22;1.73;;;0.75;;
50851;SDS011;43953;45.508;-122.806;2023-09-08T00:41:54;2.97;;;0.73;;
50851;SDS011;43953;45.508;-122.806;2023-09-08T00:42:26;2.50;;;1.17;;
50851;SDS011;43953;45.508;-122.806;2023-09-08T00:42:58;2.58;;;0.98;;
50851;SDS011;43953;45.508;-122.806;2023-09-08T00:43:29;2.85;;;0.90;;
50851;SDS011;43953;45.508;-122.806;2023-09-08T00:44:01;2.90;;;0.90;;
50851;SDS011;43953;45.508;-122.806;2023-09-08T00:44:33;2.60;;;0.75;;
50851;SDS011;43953;45.508;-122.806;2023-09-08T00:45:05;3.08;;;1.00;;
50851;SDS011;43953;45.508;-122.806;2023-09-08T00:45:38;2.08;;;0.82;;
50851;SDS011;43953;45.508;-122.806;2023-09-08T00:46:13;4.88;;;1.10;;
50851;SDS011;43953;45.508;-122.806;2023-09-08T00:46:44;1.90;;;0.68;;
50851;SDS011;43953;45.508;-122.806;2023-09-08T00:47:16;2.42;;;0.80;;
50851;SDS011;43953;45.508;-122.806;2023-09-08T00:47:48;3.95;;;0.90;;
50851;SDS011;43953;45.508;-122.806;2023-09-08T00:48:20;3.58;;;0.98;;
50851;SDS011;43953;45.508;-122.806;2023-09-08T00:48:52;2.25;;;1.10;;
50851;SDS011;43953;45.508;-122.806;2023-09-08T00:49:24;3.00;;;0.82;;
50851;SDS011;43953;45.508;-122.806;2023-09-08T00:49:56;2.83;;;1.00;;
50851;SDS011;43953;45.508;-122.806;2023-09-08T00:50:28;2.22;;;0.88;;
50851;SDS011;43953;45.508;-122.806;2023-09-08T00:51:00;2.70;;;0.98;;
50851;SDS011;43953;45.508;-122.806;2023-09-08T00:51:32;6.90;;;0.88;;
50851;SDS011;43953;45.508;-122.806;2023-09-08T00:52:05;12.90;;;1.42;;
50851;SDS011;43953;45.508;-122.806;2023-09-08T00:52:37;3.53;;;0.90;;
50851;SDS011;43953;45.508;-122.806;2023-09-08T00:53:09;2.65;;;1.00;;
50851;SDS011;43953;45.508;-122.806;2023-09-08T00:53:41;4.07;;;0.90;;
50851;SDS011;43953;45.508;-122.806;2023-09-08T00:54:13;2.70;;;1.10;;
50851;SDS011;43953;45.508;-122.806;2023-09-08T00:54:45;2.10;;;0.98;;
50851;SDS011;43953;45.508;-122.806;2023-09-08T00:55:17;2.72;;;0.80;;
50851;SDS011;43953;45.508;-122.806;2023-09-08T00:55:49;2.17;;;1.10;;
50851;SDS011;43953;45.508;-122.806;2023-09-08T00:56:23;3.72;;;0.90;;
50851;SDS011;43953;45.508;-122.806;2023-09-08T00:56:55;2.95;;;1.05;;
50851;SDS011;43953;45.508;-122.806;2023-09-08T00:57:28;6.18;;;1.20;;
50851;SDS011;43953;45.508;-122.806;2023-09-08T00:58:00;3.95;;;1.00;;
50851;SDS011;43953;45.508;-122.806;2023-09-08T00:58:33;3.42;;;1.08;;
50851;SDS011;43953;45.508;-122.806;2023-09-08T00:59:04;2.58;;;0.90;;
50851;SDS011;43953;45.508;-122.806;2023-09-08T00:59:36;2.85;;;1.05;;
50851;SDS011;43953;45.508;-122.806;2023-09-08T01:00:09;2.65;;;1.10;;
50851;SDS011;43953;45.508;-122.806;2023-09-08T01:00:42;4.45;;;1.15;;
50851;SDS011;43953;45.508;-122.806;2023-09-08T01:01:15;5.82;;;1.20;;
50851;SDS011;43953;45.508;-122.806;2023-09-08T01:01:48;3.33;;;0.88;;
50851;SDS011;43953;45.508;-122.806;2023-09-08T01:02:20;2.65;;;0.90;;
50851;SDS011;43953;45.508;-122.806;2023-09-08T01:02:53;1.92;;;1.08;;
50851;SDS011;43953;45.508;-122.806;2023-09-08T01:03:24;5.15;;;1.20;;
50851;SDS011;43953;45.508;-122.806;2023-09-08T01:03:56;4.72;;;1.05;;
50851;SDS011;43953;45.508;-122.806;2023-09-08T01:04:28;2.20;;;1.00;;
50851;SDS011;43953;45.508;-122.806;2023-09-08T01:05:00;5.80;;;1.42;;
50851;SDS011;43953;45.508;-122.806;2023-09-08T01:05:32;4.60;;;1.42;;
50851;SDS011;43953;45.508;-122.806;2023-09-08T01:06:04;2.55;;;0.90;;
50851;SDS011;43953;45.508;-122.806;2023-09-08T01:06:37;2.70;;;0.80;;
50851;SDS011;43953;45.508;-122.806;2023-09-08T01:07:09;2.50;;;1.20;;
50851;SDS011;43953;45.508;-122.806;2023-09-08T01:07:42;3.30;;;0.90;;
50851;SDS011;43953;45.508;-122.806;2023-09-08T01:08:15;5.10;;;1.38;;
50851;SDS011;43953;45.508;-122.806;2023-09-08T01:08:48;2.72;;;0.80;;
50851;SDS011;43953;45.508;-122.806;2023-09-08T01:09:20;2.08;;;1.00;;
50851;SDS011;43953;45.508;-122.806;2023-09-08T01:09:54;2.88;;;1.13;;
50851;SDS011;43953;45.508;-122.806;2023-09-08T01:10:26;3.17;;;1.17;;
50851;SDS011;43953;45.508;-122.806;2023-09-08T01:10:58;4.03;;;1.08;;
50851;SDS011;43953;45.508;-122.806;2023-09-08T01:11:30;2.78;;;1.15;;
50851;SDS011;43953;45.508;-122.806;2023-09-08T01:12:05;4.93;;;1.48;;
50851;SDS011;43953;45.508;-122.806;2023-09-08T01:12:37;4.90;;;1.90;;
50851;SDS011;43953;45.508;-122.806;2023-09-08T01:13:10;6.47;;;1.70;;
50851;SDS011;43953;45.508;-122.806;2023-09-08T01:13:42;4.40;;;1.35;;
50851;SDS011;43953;45.508;-122.806;2023-09-08T01:14:17;3.00;;;1.98;;
50851;SDS011;43953;45.508;-122.806;2023-09-08T01:14:50;4.50;;;2.28;;
50851;SDS011;43953;45.508;-122.806;2023-09-08T01:15:22;2.30;;;1.67;;
50851;SDS011;43953;45.508;-122.806;2023-09-08T01:15:54;3.40;;;2.08;;
50851;SDS011;43953;45.508;-122.806;2023-09-08T01:16:25;5.88;;;2.08;;
50851;SDS011;43953;45.508;-122.806;2023-09-08T01:16:57;5.50;;;2.42;;
50851;SDS011;43953;45.508;-122.806;2023-09-08T01:17:29;7.20;;;3.28;;
50851;SDS011;43953;45.508;-122.806;2023-09-08T01:18:00;6.97;;;3.33;;
50851;SDS011;43953;45.508;-122.806;2023-09-08T01:18:32;9.25;;;4.97;;
50851;SDS011;43953;45.508;-122.806;2023-09-08T01:19:04;8.10;;;5.13;;
50851;SDS011;43953;45.508;-122.806;2023-09-08T01:19:41;9.00;;;4.40;;
50851;SDS011;43953;45.508;-122.806;2023-09-08T01:20:20;7.43;;;4.40;;
50851;SDS011;43953;45.508;-122.806;2023-09-08T01:22:45;12.80;;;7.75;;
50851;SDS011;43953;45.508;-122.806;2023-09-08T01:23:28;12.65;;;8.07;;
50851;SDS011;43953;45.508;-122.806;2023-09-08T01:24:38;15.60;;;9.70;;
50851;SDS011;43953;45.508;-122.806;2023-09-08T01:25:18;22.77;;;14.50;;
50851;SDS011;43953;45.508;-122.806;2023-09-08T01:26:30;30.15;;;16.73;;
50851;SDS011;43953;45.508;-122.806;2023-09-08T01:27:06;22.30;;;17.02;;
50851;SDS011;43953;45.508;-122.806;2023-09-08T01:27:41;24.02;;;18.08;;
50851;SDS011;43953;45.508;-122.806;2023-09-08T01:28:17;26.00;;;18.33;;
50851;SDS011;43953;45.508;-122.806;2023-09-08T01:28:51;21.88;;;18.42;;
50851;SDS011;43953;45.508;-122.806;2023-09-08T01:29:25;23.45;;;17.27;;
50851;SDS011;43953;45.508;-122.806;2023-09-08T01:29:59;22.15;;;19.45;;
50851;SDS011;43953;45.508;-122.806;2023-09-08T01:30:33;27.15;;;19.95;;
50851;SDS011;43953;45.508;-122.806;2023-09-08T01:31:05;21.58;;;18.13;;
50851;SDS011;43953;45.508;-122.806;2023-09-08T01:31:37;25.77;;;17.92;;
50851;SDS011;43953;45.508;-122.806;2023-09-08T01:32:09;20.63;;;18.52;;
50851;SDS011;43953;45.508;-122.806;2023-09-08T01:32:41;25.88;;;19.00;;
50851;SDS011;43953;45.508;-122.806;2023-09-08T01:33:15;20.85;;;16.65;;
50851;SDS011;43953;45.508;-122.806;2023-09-08T01:33:47;20.60;;;17.60;;
50851;SDS011;43953;45.508;-122.806;2023-09-08T01:34:19;20.17;;;18.08;;
50851;SDS011;43953;45.508;-122.806;2023-09-08T01:34:51;21.25;;;16.90;;
50851;SDS011;43953;45.508;-122.806;2023-09-08T01:35:23;17.70;;;15.95;;
50851;SDS011;43953;45.508;-122.806;2023-09-08T01:35:56;19.73;;;16.58;;
50851;SDS011;43953;45.508;-122.806;2023-09-08T01:36:28;21.20;;;16.77;;
50851;SDS011;43953;45.508;-122.806;2023-09-08T01:36:59;18.08;;;16.15;;
50851;SDS011;43953;45.508;-122.806;2023-09-08T01:37:34;18.42;;;16.25;;
50851;SDS011;43953;45.508;-122.806;2023-09-08T01:38:06;15.75;;;13.02;;
50851;SDS011;43953;45.508;-122.806;2023-09-08T01:38:38;17.75;;;15.13;;
50851;SDS011;43953;45.508;-122.806;2023-09-08T01:39:10;18.50;;;14.77;;
50851;SDS011;43953;45.508;-122.806;2023-09-08T01:39:42;17.70;;;15.60;;
50851;SDS011;43953;45.508;-122.806;2023-09-08T01:40:13;17.45;;;15.65;;
50851;SDS011;43953;45.508;-122.806;2023-09-08T01:40:45;19.30;;;15.80;;
50851;SDS011;43953;45.508;-122.806;2023-09-08T01:41:17;21.85;;;15.88;;
50851;SDS011;43953;45.508;-122.806;2023-09-08T01:41:49;18.50;;;14.85;;
50851;SDS011;43953;45.508;-122.806;2023-09-08T01:42:20;18.15;;;14.05;;
50851;SDS011;43953;45.508;-122.806;2023-09-08T01:42:52;16.17;;;13.75;;
50851;SDS011;43953;45.508;-122.806;2023-09-08T01:43:24;16.27;;;13.30;;
50851;SDS011;43953;45.508;-122.806;2023-09-08T01:43:56;15.80;;;13.93;;
50851;SDS011;43953;45.508;-122.806;2023-09-08T01:44:28;18.52;;;13.50;;
50851;SDS011;43953;45.508;-122.806;2023-09-08T01:45:00;16.67;;;13.48;;
50851;SDS011;43953;45.508;-122.806;2023-09-08T01:45:32;16.63;;;13.85;;
50851;SDS011;43953;45.508;-122.806;2023-09-08T01:46:03;16.00;;;12.77;;
50851;SDS011;43953;45.508;-122.806;2023-09-08T01:46:35;15.60;;;12.55;;
50851;SDS011;43953;45.508;-122.806;2023-09-08T01:47:07;16.35;;;13.45;;
50851;SDS011;43953;45.508;-122.806;2023-09-08T01:47:38;16.20;;;12.70;;
50851;SDS011;43953;45.508;-122.806;2023-09-08T01:48:10;18.08;;;13.82;;
50851;SDS011;43953;45.508;-122.806;2023-09-08T01:48:42;16.23;;;12.73;;
50851;SDS011;43953;45.508;-122.806;2023-09-08T01:49:13;16.88;;;13.57;;
50851;SDS011;43953;45.508;-122.806;2023-09-08T01:49:45;18.73;;;12.82;;
50851;SDS011;43953;45.508;-122.806;2023-09-08T01:50:17;14.90;;;12.20;;
50851;SDS011;43953;45.508;-122.806;2023-09-08T01:50:53;14.77;;;11.88;;
50851;SDS011;43953;45.508;-122.806;2023-09-08T01:51:24;14.88;;;11.02;;
50851;SDS011;43953;45.508;-122.806;2023-09-08T01:51:56;13.77;;;10.75;;
50851;SDS011;43953;45.508;-122.806;2023-09-08T01:52:27;15.35;;;10.98;;
50851;SDS011;43953;45.508;-122.806;2023-09-08T01:52:59;13.20;;;10.68;;
50851;SDS011;43953;45.508;-122.806;2023-09-08T01:53:31;11.98;;;10.25;;
50851;SDS011;43953;45.508;-122.806;2023-09-08T01:54:03;12.00;;;10.10;;
50851;SDS011;43953;45.508;-122.806;2023-09-08T01:54:35;12.73;;;9.45;;
50851;SDS011;43953;45.508;-122.806;2023-09-08T01:55:07;18.08;;;9.00;;
50851;SDS011;43953;45.508;-122.806;2023-09-08T01:55:38;10.88;;;8.50;;
50851;SDS011;43953;45.508;-122.806;2023-09-08T01:56:10;11.13;;;8.95;;
50851;SDS011;43953;45.508;-122.806;2023-09-08T01:56:42;13.25;;;9.15;;
50851;SDS011;43953;45.508;-122.806;2023-09-08T01:57:13;9.98;;;7.80;;
50851;SDS011;43953;45.508;-122.806;2023-09-08T01:57:45;10.38;;;7.20;;
50851;SDS011;43953;45.508;-122.806;2023-09-08T01:58:17;8.25;;;6.30;;
50851;SDS011;43953;45.508;-122.806;2023-09-08T01:58:49;9.27;;;7.13;;
50851;SDS011;43953;45.508;-122.806;2023-09-08T01:59:20;9.80;;;6.75;;
50851;SDS011;43953;45.508;-122.806;2023-09-08T01:59:52;7.78;;;6.35;;
50851;SDS011;43953;45.508;-122.806;2023-09-08T02:00:24;7.90;;;7.05;;
50851;SDS011;43953;45.508;-122.806;2023-09-08T02:00:55;11.80;;;6.70;;
50851;SDS011;43953;45.508;-122.806;2023-09-08T02:01:31;8.60;;;7.60;;
50851;SDS011;43953;45.508;-122.806;2023-09-08T02:02:03;10.48;;;8.07;;
50851;SDS011;43953;45.508;-122.806;2023-09-08T02:02:35;7.28;;;6.20;;
50851;SDS011;43953;45.508;-122.806;2023-09-08T02:03:07;7.55;;;6.43;;
50851;SDS011;43953;45.508;-122.806;2023-09-08T02:03:38;7.78;;;5.70;;
50851;SDS011;43953;45.508;-122.806;2023-09-08T02:04:10;9.07;;;6.18;;
50851;SDS011;43953;45.508;-122.806;2023-09-08T02:04:42;7.25;;;5.28;;
50851;SDS011;43953;45.508;-122.806;2023-09-08T02:05:14;8.35;;;4.97;;
50851;SDS011;43953;45.508;-122.806;2023-09-08T02:05:46;8.27;;;5.65;;
50851;SDS011;43953;45.508;-122.806;2023-09-08T02:06:17;8.93;;;5.75;;
50851;SDS011;43953;45.508;-122.806;2023-09-08T02:06:49;9.18;;;6.75;;
50851;SDS011;43953;45.508;-122.806;2023-09-08T02:07:21;9.55;;;6.13;;
50851;SDS011;43953;45.508;-122.806;2023-09-08T02:07:52;12.02;;;6.07;;
50851;SDS011;43953;45.508;-122.806;2023-09-08T02:08:26;7.65;;;5.53;;
50851;SDS011;43953;45.508;-122.806;2023-09-08T02:08:58;11.15;;;7.00;;
50851;SDS011;43953;45.508;-122.806;2023-09-08T02:09:30;8.40;;;6.18;;
50851;SDS011;43953;45.508;-122.806;2023-09-08T02:10:06;9.45;;;6.43;;
50851;SDS011;43953;45.508;-122.806;2023-09-08T02:10:41;8.63;;;6.25;;
50851;SDS011;43953;45.508;-122.806;2023-09-08T02:11:13;6.65;;;5.90;;
50851;SDS011;43953;45.508;-122.806;2023-09-08T02:11:44;7.85;;;5.90;;
50851;SDS011;43953;45.508;-122.806;2023-09-08T02:12:16;7.47;;;6.15;;
50851;SDS011;43953;45.508;-122.806;2023-09-08T02:12:48;9.57;;;7.05;;
50851;SDS011;43953;45.508;-122.806;2023-09-08T02:13:19;7.53;;;6.50;;
50851;SDS011;43953;45.508;-122.806;2023-09-08T02:13:51;11.20;;;5.72;;
50851;SDS011;43953;45.508;-122.806;2023-09-08T02:14:23;7.25;;;5.80;;
50851;SDS011;43953;45.508;-122.806;2023-09-08T02:14:55;8.15;;;5.50;;
50851;SDS011;43953;45.508;-122.806;2023-09-08T02:15:27;8.23;;;5.65;;
50851;SDS011;43953;45.508;-122.806;2023-09-08T02:15:58;8.13;;;6.10;;
50851;SDS011;43953;45.508;-122.806;2023-09-08T02:16:30;8.07;;;5.63;;
50851;SDS011;43953;45.508;-122.806;2023-09-08T02:17:02;7.13;;;5.32;;
50851;SDS011;43953;45.508;-122.806;2023-09-08T02:17:33;8.85;;;5.68;;
50851;SDS011;43953;45.508;-122.806;2023-09-08T02:18:06;7.53;;;5.80;;
50851;SDS011;43953;45.508;-122.806;2023-09-08T02:18:38;7.13;;;5.53;;
50851;SDS011;43953;45.508;-122.806;2023-09-08T02:19:10;7.05;;;5.47;;
50851;SDS011;43953;45.508;-122.806;2023-09-08T02:19:41;7.20;;;5.03;;
50851;SDS011;43953;45.508;-122.806;2023-09-08T02:20:13;6.20;;;5.18;;
50851;SDS011;43953;45.508;-122.806;2023-09-08T02:20:45;6.25;;;4.80;;
50851;SDS011;43953;45.508;-122.806;2023-09-08T02:21:16;7.78;;;5.43;;
50851;SDS011;43953;45.508;-122.806;2023-09-08T02:21:48;7.30;;;5.38;;
50851;SDS011;43953;45.508;-122.806;2023-09-08T02:22:20;5.63;;;4.10;;
50851;SDS011;43953;45.508;-122.806;2023-09-08T02:22:53;7.68;;;4.72;;
50851;SDS011;43953;45.508;-122.806;2023-09-08T02:23:25;6.18;;;5.40;;
50851;SDS011;43953;45.508;-122.806;2023-09-08T02:23:57;5.38;;;4.32;;
50851;SDS011;43953;45.508;-122.806;2023-09-08T02:24:28;5.95;;;4.05;;
50851;SDS011;43953;45.508;-122.806;2023-09-08T02:25:00;7.60;;;3.53;;
50851;SDS011;43953;45.508;-122.806;2023-09-08T02:25:32;8.88;;;4.20;;
50851;SDS011;43953;45.508;-122.806;2023-09-08T02:26:04;5.57;;;3.10;;
50851;SDS011;43953;45.508;-122.806;2023-09-08T02:26:35;6.25;;;4.25;;
50851;SDS011;43953;45.508;-122.806;2023-09-08T02:27:08;6.78;;;4.80;;
50851;SDS011;43953;45.508;-122.806;2023-09-08T02:27:40;5.13;;;4.00;;
50851;SDS011;43953;45.508;-122.806;2023-09-08T02:28:12;7.18;;;3.65;;
50851;SDS011;43953;45.508;-122.806;2023-09-08T02:28:43;7.68;;;4.65;;
50851;SDS011;43953;45.508;-122.806;2023-09-08T02:29:15;6.32;;;3.70;;
50851;SDS011;43953;45.508;-122.806;2023-09-08T02:29:47;5.93;;;3.13;;
50851;SDS011;43953;45.508;-122.806;2023-09-08T02:30:18;5.97;;;3.88;;
50851;SDS011;43953;45.508;-122.806;2023-09-08T02:30:50;5.05;;;3.47;;
50851;SDS011;43953;45.508;-122.806;2023-09-08T02:31:22;6.82;;;4.22;;
50851;SDS011;43953;45.508;-122.806;2023-09-08T02:31:53;5.22;;;3.97;;
50851;SDS011;43953;45.508;-122.806;2023-09-08T02:32:25;10.45;;;4.47;;
50851;SDS011;43953;45.508;-122.806;2023-09-08T02:32:57;4.57;;;3.15;;
50851;SDS011;43953;45.508;-122.806;2023-09-08T02:33:28;7.82;;;3.67;;
50851;SDS011;43953;45.508;-122.806;2023-09-08T02:34:00;5.53;;;3.92;;
50851;SDS011;43953;45.508;-122.806;2023-09-08T02:34:35;5.63;;;3.60;;
50851;SDS011;43953;45.508;-122.806;2023-09-08T02:35:10;6.22;;;4.60;;
50851;SDS011;43953;45.508;-122.806;2023-09-08T02:35:42;8.90;;;4.55;;
50851;SDS011;43953;45.508;-122.806;2023-09-08T02:36:14;6.38;;;4.32;;
50851;SDS011;43953;45.508;-122.806;2023-09-08T02:36:45;9.77;;;4.68;;
50851;SDS011;43953;45.508;-122.806;2023-09-08T02:37:18;5.60;;;3.95;;
50851;SDS011;43953;45.508;-122.806;2023-09-08T02:37:50;8.20;;;4.03;;
50851;SDS011;43953;45.508;-122.806;2023-09-08T02:38:21;10.93;;;4.82;;
50851;SDS011;43953;45.508;-122.806;2023-09-08T02:38:53;5.22;;;4.20;;
50851;SDS011;43953;45.508;-122.806;2023-09-08T02:39:26;4.32;;;3.83;;
50851;SDS011;43953;45.508;-122.806;2023-09-08T02:39:58;4.10;;;3.70;;
50851;SDS011;43953;45.508;-122.806;2023-09-08T02:40:30;7.97;;;3.83;;
50851;SDS011;43953;45.508;-122.806;2023-09-08T02:41:01;7.47;;;4.28;;
50851;SDS011;43953;45.508;-122.806;2023-09-08T02:41:33;7.13;;;4.15;;
50851;SDS011;43953;45.508;-122.806;2023-09-08T02:42:05;7.85;;;4.03;;
50851;SDS011;43953;45.508;-122.806;2023-09-08T02:42:37;7.80;;;3.85;;
50851;SDS011;43953;45.508;-122.806;2023-09-08T02:43:08;6.95;;;4.00;;
50851;SDS011;43953;45.508;-122.806;2023-09-08T02:43:40;6.88;;;4.22;;
50851;SDS011;43953;45.508;-122.806;2023-09-08T02:44:12;9.93;;;4.10;;
50851;SDS011;43953;45.508;-122.806;2023-09-08T02:44:43;6.78;;;4.18;;
50851;SDS011;43953;45.508;-122.806;2023-09-08T02:45:15;8.73;;;3.97;;
50851;SDS011;43953;45.508;-122.806;2023-09-08T02:45:47;5.75;;;3.60;;
50851;SDS011;43953;45.508;-122.806;2023-09-08T02:46:19;7.90;;;3.08;;
50851;SDS011;43953;45.508;-122.806;2023-09-08T02:46:50;7.07;;;3.92;;
50851;SDS011;43953;45.508;-122.806;2023-09-08T02:47:22;6.68;;;3.30;;
50851;SDS011;43953;45.508;-122.806;2023-09-08T02:47:54;9.13;;;2.85;;
50851;SDS011;43953;45.508;-122.806;2023-09-08T02:48:26;6.97;;;3.42;;
50851;SDS011;43953;45.508;-122.806;2023-09-08T02:48:58;7.63;;;3.47;;
50851;SDS011;43953;45.508;-122.806;2023-09-08T02:49:29;9.85;;;3.35;;
50851;SDS011;43953;45.508;-122.806;2023-09-08T02:50:01;7.70;;;3.05;;
50851;SDS011;43953;45.508;-122.806;2023-09-08T02:50:35;8.10;;;3.22;;
50851;SDS011;43953;45.508;-122.806;2023-09-08T02:51:07;6.05;;;2.80;;
50851;SDS011;43953;45.508;-122.806;2023-09-08T02:51:38;5.93;;;3.17;;
50851;SDS011;43953;45.508;-122.806;2023-09-08T02:52:10;4.53;;;2.75;;
50851;SDS011;43953;45.508;-122.806;2023-09-08T02:52:42;6.30;;;2.97;;
50851;SDS011;43953;45.508;-122.806;2023-09-08T02:53:14;4.57;;;2.38;;
50851;SDS011;43953;45.508;-122.806;2023-09-08T02:53:45;5.18;;;2.58;;
50851;SDS011;43953;45.508;-122.806;2023-09-08T02:54:17;6.97;;;2.50;;
50851;SDS011;43953;45.508;-122.806;2023-09-08T02:54:49;5.80;;;2.35;;
50851;SDS011;43953;45.508;-122.806;2023-09-08T02:55:20;6.63;;;2.67;;
50851;SDS011;43953;45.508;-122.806;2023-09-08T02:55:52;7.18;;;2.65;;
50851;SDS011;43953;45.508;-122.806;2023-09-08T02:56:24;5.50;;;2.22;;
50851;SDS011;43953;45.508;-122.806;2023-09-08T02:56:55;4.18;;;2.63;;
50851;SDS011;43953;45.508;-122.806;2023-09-08T02:57:27;3.58;;;2.38;;
50851;SDS011;43953;45.508;-122.806;2023-09-08T02:57:59;6.38;;;2.72;;
50851;SDS011;43953;45.508;-122.806;2023-09-08T02:58:31;5.13;;;2.95;;
50851;SDS011;43953;45.508;-122.806;2023-09-08T02:59:05;5.50;;;2.10;;
50851;SDS011;43953;45.508;-122.806;2023-09-08T02:59:37;7.80;;;2.42;;
50851;SDS011;43953;45.508;-122.806;2023-09-08T03:00:09;5.38;;;2.35;;
50851;SDS011;43953;45.508;-122.806;2023-09-08T03:00:41;6.68;;;2.50;;
50851;SDS011;43953;45.508;-122.806;2023-09-08T03:01:13;5.35;;;2.10;;
50851;SDS011;43953;45.508;-122.806;2023-09-08T03:01:46;5.32;;;2.50;;
50851;SDS011;43953;45.508;-122.806;2023-09-08T03:02:17;6.32;;;2.58;;
50851;SDS011;43953;45.508;-122.806;2023-09-08T03:02:49;8.20;;;2.50;;
50851;SDS011;43953;45.508;-122.806;2023-09-08T03:03:21;15.63;;;2.30;;
50851;SDS011;43953;45.508;-122.806;2023-09-08T03:03:52;6.45;;;2.33;;
50851;SDS011;43953;45.508;-122.806;2023-09-08T03:04:24;5.50;;;2.30;;
50851;SDS011;43953;45.508;-122.806;2023-09-08T03:04:56;6.28;;;1.90;;
50851;SDS011;43953;45.508;-122.806;2023-09-08T03:05:27;6.05;;;2.25;;
50851;SDS011;43953;45.508;-122.806;2023-09-08T03:05:59;4.82;;;3.05;;
50851;SDS011;43953;45.508;-122.806;2023-09-08T03:06:34;7.00;;;2.90;;
50851;SDS011;43953;45.508;-122.806;2023-09-08T03:07:06;5.15;;;2.50;;
50851;SDS011;43953;45.508;-122.806;2023-09-08T03:07:37;6.72;;;2.83;;